Terminal Aerodrome Forecast
Issued by NWS

Home | Current Version | Previous Version | Text Only | Print | Product List | Glossary On
Versions: 1 2 3 4 5 6 7 8 9 10 11 12 13 14 15 16 17
000
FTUS41 KBGM 280520
TAFELM
TAF
KELM 280520Z 2806/2906 28009KT P6SM OVC040
      TEMPO 2806/2809 -SHRA OVC025
     FM281300 34010G20KT P6SM BKN040
     FM282300 29004KT P6SM OVC040=

USA.gov is the U.S. government's official web portal to all federal, state and local government web resources and services.